Smyrna Airport
KMQY : now visible

Airfield :











YOU CAN JOIN US ON...

 
LOGIN :

Register | Disclaimer

   EN    FR    IT 

 









Legend :    VFR   Marginal VFR   IFR   Intensive IFR   Very Intensive IFR
Visi :
Ceiling :
>= 8 km
>= 3000ft
5 to 8 km
1000 to 3000 ft
1500m to 5 km
500 to 1000 ft
800 to 1500m
200 to 500 ft
< 800m
< 200 ft
Symbols :   Thunderstorms  Fog  Heavy snow  Heavy precipitations  Wind > 20 kt






- Airport Elevation : 543 ft


KMQY - Smyrna

CURRENT METAR :
  • 171856Z 29010KT 10SM OVC015 01/M01 A2998 RMK AO2 SLP166 T00111011

EXPIRED METARs :
  • 171756Z 30009KT 10SM OVC015 01/M01 A2997 RMK AO2 PRESFR SLP161 T00061011 10006 21011 50009
  • 171656Z 30009G16KT 10SM OVC015 01/M01 A2998 RMK AO2 SLP164 T00061011

TAF KMQY
Valid from the 17 at 18:00 until the 18 at 18:00 UTC


171729Z 1718/1818 30010G16KT P6SM OVC015
FM172200 30008KT P6SM BKN020
FM180000 28007KT P6SM BKN025
FM180600 22005KT P6SM SCT020
KZME FIR / North America



MET'MAP, your aeronautical weather chart ! - Copyright ORBIFLY December 2007 - Disclaimer

ORBIFLY MET'MAP TEAM :

Programming & Development : Alexandra Zaïnal
Concept & original design : Baudouin d'Aumeries
Assistance for programming : Marc-Olivier Méhu
Technical & hardware support : Manuel Goepfert

Contact : metmap@orbifly.com




SOURCES & CREDITS :

   NOAA       Earth
Advisory